sensor_id;sensor_type;location;lat;lon;timestamp;temperature;humidity
8481;DHT22;4277;51.354;6.740;2023-09-12T08:53:56;19.10;99.90
8481;DHT22;4277;51.354;6.740;2023-09-12T08:56:21;21.10;99.90
8481;DHT22;4277;51.354;6.740;2023-09-12T09:31:12;21.10;99.90
8481;DHT22;4277;51.354;6.740;2023-09-12T09:33:41;21.70;99.90
8481;DHT22;4277;51.354;6.740;2023-09-12T09:36:14;21.70;99.90
8481;DHT22;4277;51.354;6.740;2023-09-12T09:38:40;21.80;99.90
8481;DHT22;4277;51.354;6.740;2023-09-12T09:41:06;21.90;99.90
8481;DHT22;4277;51.354;6.740;2023-09-12T09:43:32;22.00;99.90
8481;DHT22;4277;51.354;6.740;2023-09-12T09:51:01;22.10;99.90
8481;DHT22;4277;51.354;6.740;2023-09-12T09:56:13;22.60;99.90
8481;DHT22;4277;51.354;6.740;2023-09-12T09:58:55;22.80;99.90
8481;DHT22;4277;51.354;6.740;2023-09-12T10:01:28;22.80;99.90
8481;DHT22;4277;51.354;6.740;2023-09-12T10:03:58;22.90;99.90
8481;DHT22;4277;51.354;6.740;2023-09-12T10:06:24;22.90;99.90
8481;DHT22;4277;51.354;6.740;2023-09-12T10:08:52;22.90;99.90
8481;DHT22;4277;51.354;6.740;2023-09-12T10:11:19;22.90;99.90
8481;DHT22;4277;51.354;6.740;2023-09-12T10:21:34;22.90;99.90
8481;DHT22;4277;51.354;6.740;2023-09-12T10:24:00;23.20;99.90
8481;DHT22;4277;51.354;6.740;2023-09-12T10:26:28;23.20;99.90
8481;DHT22;4277;51.354;6.740;2023-09-12T10:28:54;23.30;99.90
8481;DHT22;4277;51.354;6.740;2023-09-12T10:31:21;23.20;99.90
8481;DHT22;4277;51.354;6.740;2023-09-12T10:33:49;23.30;99.90
8481;DHT22;4277;51.354;6.740;2023-09-12T10:36:17;23.30;99.90
8481;DHT22;4277;51.354;6.740;2023-09-12T10:38:45;23.20;99.90
8481;DHT22;4277;51.354;6.740;2023-09-12T10:41:12;23.20;99.90
8481;DHT22;4277;51.354;6.740;2023-09-12T10:43:42;23.20;99.90
8481;DHT22;4277;51.354;6.740;2023-09-12T10:46:08;23.20;99.90
8481;DHT22;4277;51.354;6.740;2023-09-12T10:48:35;23.20;99.90
8481;DHT22;4277;51.354;6.740;2023-09-12T10:51:02;23.30;99.90
8481;DHT22;4277;51.354;6.740;2023-09-12T10:53:30;23.40;99.90
8481;DHT22;4277;51.354;6.740;2023-09-12T10:56:14;23.40;99.90
8481;DHT22;4277;51.354;6.740;2023-09-12T11:21:48;23.60;99.90
8481;DHT22;4277;51.354;6.740;2023-09-12T11:24:15;23.70;99.90
8481;DHT22;4277;51.354;6.740;2023-09-12T11:29:36;23.70;99.90
8481;DHT22;4277;51.354;6.740;2023-09-12T11:32:03;23.70;99.90
8481;DHT22;4277;51.354;6.740;2023-09-12T11:34:37;23.80;99.90
8481;DHT22;4277;51.354;6.740;2023-09-12T11:37:03;23.90;99.90
8481;DHT22;4277;51.354;6.740;2023-09-12T11:39:33;23.90;99.90
8481;DHT22;4277;51.354;6.740;2023-09-12T11:42:00;23.90;99.90
8481;DHT22;4277;51.354;6.740;2023-09-12T11:46:53;24.10;99.90
8481;DHT22;4277;51.354;6.740;2023-09-12T11:49:20;24.30;99.90
8481;DHT22;4277;51.354;6.740;2023-09-12T11:51:52;24.30;99.90
8481;DHT22;4277;51.354;6.740;2023-09-12T11:56:48;24.60;99.90
8481;DHT22;4277;51.354;6.740;2023-09-12T11:59:15;24.50;99.90
8481;DHT22;4277;51.354;6.740;2023-09-12T12:01:44;24.50;99.90
8481;DHT22;4277;51.354;6.740;2023-09-12T12:04:10;24.60;99.90
8481;DHT22;4277;51.354;6.740;2023-09-12T12:06:36;24.70;99.90
8481;DHT22;4277;51.354;6.740;2023-09-12T12:09:02;24.80;99.90
8481;DHT22;4277;51.354;6.740;2023-09-12T12:11:28;24.80;99.90
8481;DHT22;4277;51.354;6.740;2023-09-12T12:13:54;25.00;99.90
8481;DHT22;4277;51.354;6.740;2023-09-12T12:16:20;25.10;98.90
8481;DHT22;4277;51.354;6.740;2023-09-12T12:18:45;25.10;96.10
8481;DHT22;4277;51.354;6.740;2023-09-12T12:21:11;25.20;97.70
8481;DHT22;4277;51.354;6.740;2023-09-12T12:23:37;25.30;96.40
8481;DHT22;4277;51.354;6.740;2023-09-12T12:26:05;25.20;93.60
8481;DHT22;4277;51.354;6.740;2023-09-12T12:28:31;25.20;95.90
8481;DHT22;4277;51.354;6.740;2023-09-12T12:30:59;25.20;98.50
8481;DHT22;4277;51.354;6.740;2023-09-12T12:33:25;25.20;98.90
8481;DHT22;4277;51.354;6.740;2023-09-12T12:35:59;25.10;99.60
8481;DHT22;4277;51.354;6.740;2023-09-12T12:38:25;25.00;99.90
8481;DHT22;4277;51.354;6.740;2023-09-12T12:40:51;25.00;99.90
8481;DHT22;4277;51.354;6.740;2023-09-12T12:43:17;25.00;99.90
8481;DHT22;4277;51.354;6.740;2023-09-12T12:45:55;25.00;99.70
8481;DHT22;4277;51.354;6.740;2023-09-12T12:48:31;24.90;99.90
8481;DHT22;4277;51.354;6.740;2023-09-12T12:50:57;24.90;97.10
8481;DHT22;4277;51.354;6.740;2023-09-12T12:53:44;24.80;99.90
8481;DHT22;4277;51.354;6.740;2023-09-12T12:56:12;24.70;99.90
8481;DHT22;4277;51.354;6.740;2023-09-12T12:58:39;24.80;99.90
8481;DHT22;4277;51.354;6.740;2023-09-12T13:01:05;24.70;99.90
8481;DHT22;4277;51.354;6.740;2023-09-12T13:03:30;24.70;99.90
8481;DHT22;4277;51.354;6.740;2023-09-12T13:05:57;24.70;99.90
8481;DHT22;4277;51.354;6.740;2023-09-12T13:08:22;24.80;99.90
8481;DHT22;4277;51.354;6.740;2023-09-12T13:10:49;24.80;99.90
8481;DHT22;4277;51.354;6.740;2023-09-12T13:13:15;24.90;99.10
8481;DHT22;4277;51.354;6.740;2023-09-12T13:15:41;24.90;99.90
8481;DHT22;4277;51.354;6.740;2023-09-12T13:18:06;24.80;98.50
8481;DHT22;4277;51.354;6.740;2023-09-12T13:20:32;24.90;99.90
8481;DHT22;4277;51.354;6.740;2023-09-12T13:22:58;24.80;98.30
8481;DHT22;4277;51.354;6.740;2023-09-12T13:25:23;24.70;96.80
8481;DHT22;4277;51.354;6.740;2023-09-12T13:27:49;24.60;99.90
8481;DHT22;4277;51.354;6.740;2023-09-12T13:30:15;24.60;99.00
8481;DHT22;4277;51.354;6.740;2023-09-12T13:32:40;24.60;99.90
8481;DHT22;4277;51.354;6.740;2023-09-12T13:35:06;24.60;99.90
8481;DHT22;4277;51.354;6.740;2023-09-12T13:37:33;24.60;99.90
8481;DHT22;4277;51.354;6.740;2023-09-12T13:39:58;24.50;99.20
8481;DHT22;4277;51.354;6.740;2023-09-12T13:42:24;24.50;99.90
8481;DHT22;4277;51.354;6.740;2023-09-12T13:44:51;24.50;99.90
8481;DHT22;4277;51.354;6.740;2023-09-12T13:47:17;24.50;99.90
8481;DHT22;4277;51.354;6.740;2023-09-12T13:49:47;24.60;99.80
8481;DHT22;4277;51.354;6.740;2023-09-12T13:52:13;24.50;99.90
8481;DHT22;4277;51.354;6.740;2023-09-12T13:54:40;24.50;99.90
8481;DHT22;4277;51.354;6.740;2023-09-12T13:57:05;24.50;99.10
8481;DHT22;4277;51.354;6.740;2023-09-12T13:59:31;24.60;99.90
8481;DHT22;4277;51.354;6.740;2023-09-12T14:01:56;24.60;99.90
8481;DHT22;4277;51.354;6.740;2023-09-12T14:04:22;24.70;99.90
8481;DHT22;4277;51.354;6.740;2023-09-12T14:06:47;24.60;99.90
8481;DHT22;4277;51.354;6.740;2023-09-12T14:09:13;24.70;99.90
8481;DHT22;4277;51.354;6.740;2023-09-12T14:11:38;24.70;99.90
8481;DHT22;4277;51.354;6.740;2023-09-12T14:14:05;24.80;99.90
8481;DHT22;4277;51.354;6.740;2023-09-12T14:16:31;24.70;99.90
8481;DHT22;4277;51.354;6.740;2023-09-12T14:18:56;24.70;96.70
8481;DHT22;4277;51.354;6.740;2023-09-12T14:21:22;24.70;99.90
8481;DHT22;4277;51.354;6.740;2023-09-12T14:23:47;24.70;99.90
8481;DHT22;4277;51.354;6.740;2023-09-12T14:26:13;24.70;99.90
8481;DHT22;4277;51.354;6.740;2023-09-12T14:28:38;24.70;99.90
8481;DHT22;4277;51.354;6.740;2023-09-12T14:31:04;24.70;99.90
8481;DHT22;4277;51.354;6.740;2023-09-12T14:33:31;24.60;99.90
8481;DHT22;4277;51.354;6.740;2023-09-12T14:35:57;24.60;99.90
8481;DHT22;4277;51.354;6.740;2023-09-12T14:38:22;24.60;99.90
8481;DHT22;4277;51.354;6.740;2023-09-12T14:40:49;24.60;99.90
8481;DHT22;4277;51.354;6.740;2023-09-12T14:43:14;24.60;99.90
8481;DHT22;4277;51.354;6.740;2023-09-12T14:45:40;24.50;99.90
8481;DHT22;4277;51.354;6.740;2023-09-12T14:48:06;24.40;99.90
8481;DHT22;4277;51.354;6.740;2023-09-12T14:50:32;24.40;99.90
8481;DHT22;4277;51.354;6.740;2023-09-12T14:52:58;24.50;99.90
8481;DHT22;4277;51.354;6.740;2023-09-12T14:55:23;24.40;99.90
8481;DHT22;4277;51.354;6.740;2023-09-12T14:57:49;24.40;99.90
8481;DHT22;4277;51.354;6.740;2023-09-12T15:00:15;24.40;99.90
8481;DHT22;4277;51.354;6.740;2023-09-12T15:02:40;24.30;99.90
8481;DHT22;4277;51.354;6.740;2023-09-12T15:07:33;24.30;99.90
8481;DHT22;4277;51.354;6.740;2023-09-12T15:09:59;24.20;99.90
8481;DHT22;4277;51.354;6.740;2023-09-12T15:12:25;24.20;99.90
8481;DHT22;4277;51.354;6.740;2023-09-12T15:14:51;24.20;99.90
8481;DHT22;4277;51.354;6.740;2023-09-12T15:17:20;24.20;99.90
8481;DHT22;4277;51.354;6.740;2023-09-12T15:19:46;24.30;99.90
8481;DHT22;4277;51.354;6.740;2023-09-12T15:22:12;24.30;99.90
8481;DHT22;4277;51.354;6.740;2023-09-12T15:24:42;24.50;99.90
8481;DHT22;4277;51.354;6.740;2023-09-12T15:27:07;24.50;99.50
8481;DHT22;4277;51.354;6.740;2023-09-12T15:29:33;24.50;96.80
8481;DHT22;4277;51.354;6.740;2023-09-12T15:31:59;24.50;98.20
8481;DHT22;4277;51.354;6.740;2023-09-12T15:34:26;24.50;98.10
8481;DHT22;4277;51.354;6.740;2023-09-12T15:37:09;24.40;97.40
8481;DHT22;4277;51.354;6.740;2023-09-12T15:39:35;24.40;97.10
8481;DHT22;4277;51.354;6.740;2023-09-12T15:42:01;24.40;96.20
8481;DHT22;4277;51.354;6.740;2023-09-12T15:44:26;24.30;99.90
8481;DHT22;4277;51.354;6.740;2023-09-12T15:46:52;24.40;99.90
8481;DHT22;4277;51.354;6.740;2023-09-12T15:49:19;24.50;99.40
8481;DHT22;4277;51.354;6.740;2023-09-12T15:51:44;24.60;99.90
8481;DHT22;4277;51.354;6.740;2023-09-12T15:54:10;24.60;99.20
8481;DHT22;4277;51.354;6.740;2023-09-12T15:56:36;24.60;98.20
8481;DHT22;4277;51.354;6.740;2023-09-12T15:59:01;24.60;99.90
8481;DHT22;4277;51.354;6.740;2023-09-12T16:01:27;24.50;97.30
8481;DHT22;4277;51.354;6.740;2023-09-12T16:03:53;24.60;99.90
8481;DHT22;4277;51.354;6.740;2023-09-12T16:06:19;24.60;96.50
8481;DHT22;4277;51.354;6.740;2023-09-12T16:08:45;24.60;96.20
8481;DHT22;4277;51.354;6.740;2023-09-12T16:11:10;24.60;98.30
8481;DHT22;4277;51.354;6.740;2023-09-12T16:13:36;24.60;99.90
8481;DHT22;4277;51.354;6.740;2023-09-12T16:16:01;24.60;99.90
8481;DHT22;4277;51.354;6.740;2023-09-12T16:18:27;24.60;99.20
8481;DHT22;4277;51.354;6.740;2023-09-12T16:20:53;24.50;98.00
8481;DHT22;4277;51.354;6.740;2023-09-12T16:23:20;24.40;96.40
8481;DHT22;4277;51.354;6.740;2023-09-12T18:32:37;24.30;97.00
8481;DHT22;4277;51.354;6.740;2023-09-12T18:35:03;21.70;99.90
8481;DHT22;4277;51.354;6.740;2023-09-12T18:37:31;21.60;99.90
8481;DHT22;4277;51.354;6.740;2023-09-12T18:39:57;21.50;99.90
8481;DHT22;4277;51.354;6.740;2023-09-12T18:42:23;21.50;99.90
8481;DHT22;4277;51.354;6.740;2023-09-12T18:44:49;21.40;99.90
8481;DHT22;4277;51.354;6.740;2023-09-12T18:47:14;21.40;99.90
8481;DHT22;4277;51.354;6.740;2023-09-12T18:49:40;21.30;99.90
8481;DHT22;4277;51.354;6.740;2023-09-12T19:01:55;21.30;99.90
8481;DHT22;4277;51.354;6.740;2023-09-12T19:04:22;21.30;99.90
8481;DHT22;4277;51.354;6.740;2023-09-12T19:06:52;21.30;99.90
8481;DHT22;4277;51.354;6.740;2023-09-12T19:09:18;21.30;99.90
8481;DHT22;4277;51.354;6.740;2023-09-12T19:11:45;21.20;99.90
